Fairview Valley, Nevada Weather observations

Data are for observation ending at time listed.
 Day   Time    Ave.   Ave.  Ave.  Vector   Max.   Stn.    Total    Solar   Ave.   Ave.    #1       #2
  of    of     Air    Rel.  Wind   Wind    Wind   Baro.  Precip.   Rad.    Soil   Vis.   Cloud   Cloud
Year   Day     Temp.  Hum.  Speed  Dir.    Gust   Pres.                    Temp.          Ceil    Ceil
2016   (PST)    F      %     mph   deg.    mph     mb.     in.     W/m2     F     (km)   k ft.   k ft.
------------------------------------------------------------------------------------------------------
 147    0:00  999.0   999  999.0   999    999.0    999    999.00     999   999.0   999.0  999.0  999.0
 147    0:10  999.0   999  999.0   999    999.0    999    999.00     999   999.0   999.0  999.0  999.0
 147    0:20  999.0   999  999.0   999    999.0    999    999.00     999   999.0   999.0  999.0  999.0
 147    0:30  999.0   999  999.0   999    999.0    999    999.00     999   999.0   999.0  999.0  999.0
 147    0:40  999.0   999  999.0   999    999.0    999    999.00     999   999.0   999.0  999.0  999.0
 147    0:50  999.0   999  999.0   999    999.0    999    999.00     999   999.0   999.0  999.0  999.0
 147    1:00  999.0   999  999.0   999    999.0    999    999.00     999   999.0   999.0  999.0  999.0
 147    1:10  999.0   999  999.0   999    999.0    999    999.00     999   999.0   999.0  999.0  999.0
 147    1:20  999.0   999  999.0   999    999.0    999    999.00     999   999.0   999.0  999.0  999.0
 147    1:30  999.0   999  999.0   999    999.0    999    999.00     999   999.0   999.0  999.0  999.0
 147    1:40  999.0   999  999.0   999    999.0    999    999.00     999   999.0   999.0  999.0  999.0
 147    1:50  999.0   999  999.0   999    999.0    999    999.00     999   999.0   999.0  999.0  999.0
 147    2:00  999.0   999  999.0   999    999.0    999    999.00     999   999.0   999.0  999.0  999.0
 147    2:10  999.0   999  999.0   999    999.0    999    999.00     999   999.0   999.0  999.0  999.0
 147    2:20  999.0   999  999.0   999    999.0    999    999.00     999   999.0   999.0  999.0  999.0
 147    2:30  999.0   999  999.0   999    999.0    999    999.00     999   999.0   999.0  999.0  999.0
 147    2:40  999.0   999  999.0   999    999.0    999    999.00     999   999.0   999.0  999.0  999.0
 147    2:50  999.0   999  999.0   999    999.0    999    999.00     999   999.0   999.0  999.0  999.0
 147    3:00  999.0   999  999.0   999    999.0    999    999.00     999   999.0   999.0  999.0  999.0
 147    3:10  999.0   999  999.0   999    999.0    999    999.00     999   999.0   999.0  999.0  999.0
 147    3:20  999.0   999  999.0   999    999.0    999    999.00     999   999.0   999.0  999.0  999.0
 147    3:30  999.0   999  999.0   999    999.0    999    999.00     999   999.0   999.0  999.0  999.0
 147    3:40  999.0   999  999.0   999    999.0    999    999.00     999   999.0   999.0  999.0  999.0
 147    3:50  999.0   999  999.0   999    999.0    999    999.00     999   999.0   999.0  999.0  999.0
 147    4:00  999.0   999  999.0   999    999.0    999    999.00     999   999.0   999.0  999.0  999.0
 147    4:10  999.0   999  999.0   999    999.0    999    999.00     999   999.0   999.0  999.0  999.0
 147    4:20  999.0   999  999.0   999    999.0    999    999.00     999   999.0   999.0  999.0  999.0
 147    4:30  999.0   999  999.0   999    999.0    999    999.00     999   999.0   999.0  999.0  999.0
 147    4:40  999.0   999  999.0   999    999.0    999    999.00     999   999.0   999.0  999.0  999.0
 147    4:50  999.0   999  999.0   999    999.0    999    999.00     999   999.0   999.0  999.0  999.0
 147    5:00  999.0   999  999.0   999    999.0    999    999.00     999   999.0   999.0  999.0  999.0
 147    5:10  999.0   999  999.0   999    999.0    999    999.00     999   999.0   999.0  999.0  999.0
 147    5:20  999.0   999  999.0   999    999.0    999    999.00     999   999.0   999.0  999.0  999.0
 147    5:30  999.0   999  999.0   999    999.0    999    999.00     999   999.0   999.0  999.0  999.0
 147    5:40  999.0   999  999.0   999    999.0    999    999.00     999   999.0   999.0  999.0  999.0
 147    5:50   47.7    80    1.0    37      1.6    873     0.00     167    62.5   999.0    0.0  999.0
 147    6:00   50.3    75    1.5    35      2.6    873     0.00     235    62.4   999.0    0.0  999.0
 147    6:10   51.6    73    1.3    22      2.3    873     0.00     153    62.3   999.0    1.5  999.0
 147    6:20   50.8    75    1.0   349      1.7    873     0.00     129    62.2   999.0    8.9  999.0
 147    6:30   51.0    75    1.1   314      2.0    873     0.00     204    62.2   999.0    8.8  999.0
 147    6:40  999.0   999  999.0   999    999.0    999    999.00     999   999.0   999.0  999.0  999.0
 147    6:50   53.5    70    1.5   255      2.7    873     0.00     352    62.0   999.0    8.3  999.0
 147    7:00   54.2    67    1.7   217      2.9    873     0.00     204    61.9   999.0    8.3  999.0
 147    7:10   54.5    66    1.8   232      3.0    873     0.00     244    61.9   999.0    8.9  999.0
 147    7:20   54.9    63    2.3   220      3.7    873     0.00     266    61.8   999.0    8.7  999.0
 147    7:30   55.2    64    2.2   234      4.3    873     0.00     351    61.8   999.0    7.7  999.0
 147    7:40   56.2    63    2.4   244      5.6    873     0.00     502    61.8   999.0    7.6  999.0
 147    7:50   57.5    60    4.3   261      6.9    873     0.00     659    61.8   999.0    9.2  999.0
 147    8:00   58.0    57    4.0   262      7.5    873     0.00     595    61.6   999.0    2.1  999.0
 147    8:10   59.0    53    4.0   229      7.1    873     0.00     603    61.6   999.0    0.0  999.0
 147    8:20   59.8    50    4.2   231      7.9    873     0.00     629    61.7   999.0    0.0  999.0
 147    8:30   60.4    49    3.5   264      8.2    873     0.00     657    61.7   999.0    0.0  999.0
 147    8:40   60.8    47    3.4   280      9.1    873     0.00     694    61.7   999.0    0.0  999.0
 147    8:50   61.1    45    3.7   317      9.0    873     0.00     744    61.8   999.0    0.0  999.0
 147    9:00   62.3    43    3.0   288      8.2    873     0.00     653    61.8   999.0    0.8  999.0
 147    9:10   62.9    40    4.7     2      9.6    873     0.00     921    61.8   999.0    4.9  999.0
 147    9:20   63.9    39    4.4   297     10.3    873     0.00     785    61.9   999.0    5.4  999.0
 147    9:30   63.4    39    4.6   321     10.1    873     0.00     769    62.0   999.0    3.4  999.0
 147    9:40   63.0    39    3.8   264      9.2    873     0.00     544    62.0   999.0    5.3  999.0
 147    9:50  999.0   999  999.0   999    999.0    999    999.00     999   999.0   999.0  999.0  999.0
 147   10:00  999.0   999  999.0   999    999.0    999    999.00     999   999.0   999.0  999.0  999.0
 147   10:10  999.0   999  999.0   999    999.0    999    999.00     999   999.0   999.0  999.0  999.0
 147   10:20  999.0   999  999.0   999    999.0    999    999.00     999   999.0   999.0  999.0  999.0
 147   10:30  999.0   999  999.0   999    999.0    999    999.00     999   999.0   999.0  999.0  999.0
 147   10:40  999.0   999  999.0   999    999.0    999    999.00     999   999.0   999.0  999.0  999.0
 147   10:50  999.0   999  999.0   999    999.0    999    999.00     999   999.0   999.0  999.0  999.0
 147   11:00  999.0   999  999.0   999    999.0    999    999.00     999   999.0   999.0  999.0  999.0
 147   11:10  999.0   999  999.0   999    999.0    999    999.00     999   999.0   999.0  999.0  999.0
 147   11:20  999.0   999  999.0   999    999.0    999    999.00     999   999.0   999.0  999.0  999.0
 147   11:30  999.0   999  999.0   999    999.0    999    999.00     999   999.0   999.0  999.0  999.0
 147   11:40  999.0   999  999.0   999    999.0    999    999.00     999   999.0   999.0  999.0  999.0
 147   11:50  999.0   999  999.0   999    999.0    999    999.00     999   999.0   999.0  999.0  999.0
 147   12:00  999.0   999  999.0   999    999.0    999    999.00     999   999.0   999.0  999.0  999.0
 147   12:10  999.0   999  999.0   999    999.0    999    999.00     999   999.0   999.0  999.0  999.0
 147   12:20  999.0   999  999.0   999    999.0    999    999.00     999   999.0   999.0  999.0  999.0
 147   12:30  999.0   999  999.0   999    999.0    999    999.00     999   999.0   999.0  999.0  999.0
 147   12:40  999.0   999  999.0   999    999.0    999    999.00     999   999.0   999.0  999.0  999.0
 147   12:50  999.0   999  999.0   999    999.0    999    999.00     999   999.0   999.0  999.0  999.0
 147   13:00  999.0   999  999.0   999    999.0    999    999.00     999   999.0   999.0  999.0  999.0
 147   13:10  999.0   999  999.0   999    999.0    999    999.00     999   999.0   999.0  999.0  999.0
 147   13:20  999.0   999  999.0   999    999.0    999    999.00     999   999.0   999.0  999.0  999.0
 147   13:30  999.0   999  999.0   999    999.0    999    999.00     999   999.0   999.0  999.0  999.0
 147   13:40  999.0   999  999.0   999    999.0    999    999.00     999   999.0   999.0  999.0  999.0
 147   13:50  999.0   999  999.0   999    999.0    999    999.00     999   999.0   999.0  999.0  999.0
 147   14:00  999.0   999  999.0   999    999.0    999    999.00     999   999.0   999.0  999.0  999.0
 147   14:10  999.0   999  999.0   999    999.0    999    999.00     999   999.0   999.0  999.0  999.0
 147   14:20  999.0   999  999.0   999    999.0    999    999.00     999   999.0   999.0  999.0  999.0
 147   14:30  999.0   999  999.0   999    999.0    999    999.00     999   999.0   999.0  999.0  999.0
 147   14:40  999.0   999  999.0   999    999.0    999    999.00     999   999.0   999.0  999.0  999.0
 147   14:50  999.0   999  999.0   999    999.0    999    999.00     999   999.0   999.0  999.0  999.0
 147   15:00  999.0   999  999.0   999    999.0    999    999.00     999   999.0   999.0  999.0  999.0
 147   15:10  999.0   999  999.0   999    999.0    999    999.00     999   999.0   999.0  999.0  999.0
 147   15:20  999.0   999  999.0   999    999.0    999    999.00     999   999.0   999.0  999.0  999.0
 147   15:30  999.0   999  999.0   999    999.0    999    999.00     999   999.0   999.0  999.0  999.0
 147   15:40  999.0   999  999.0   999    999.0    999    999.00     999   999.0   999.0  999.0  999.0
 147   15:50  999.0   999  999.0   999    999.0    999    999.00     999   999.0   999.0  999.0  999.0
 147   16:00  999.0   999  999.0   999    999.0    999    999.00     999   999.0   999.0  999.0  999.0
 147   16:10  999.0   999  999.0   999    999.0    999    999.00     999   999.0   999.0  999.0  999.0
 147   16:20  999.0   999  999.0   999    999.0    999    999.00     999   999.0   999.0  999.0  999.0
 147   16:30  999.0   999  999.0   999    999.0    999    999.00     999   999.0   999.0  999.0  999.0
 147   16:40  999.0   999  999.0   999    999.0    999    999.00     999   999.0   999.0  999.0  999.0
 147   16:50  999.0   999  999.0   999    999.0    999    999.00     999   999.0   999.0  999.0  999.0
 147   17:00  999.0   999  999.0   999    999.0    999    999.00     999   999.0   999.0  999.0  999.0
 147   17:10  999.0   999  999.0   999    999.0    999    999.00     999   999.0   999.0  999.0  999.0
 147   17:20  999.0   999  999.0   999    999.0    999    999.00     999   999.0   999.0  999.0  999.0
 147   17:30  999.0   999  999.0   999    999.0    999    999.00     999   999.0   999.0  999.0  999.0
 147   17:40  999.0   999  999.0   999    999.0    999    999.00     999   999.0   999.0  999.0  999.0
 147   17:50   70.4    19   10.6   288     14.0    870     0.00     225    70.6   999.0    4.6  999.0
 147   18:00   70.2    19    7.6   281     10.4    870     0.00     199    70.8   999.0    8.3  999.0
 147   18:10   70.2    19    9.3   306     15.3    870     0.00     163    70.9   999.0    2.0  999.0
 147   18:20  538.3    14  1650.0     0      8.7    1431    17.43   147000    42.2    21.0   13.2  999.0

Return to Fairview Valley graphs page.


Western Regional Climate Center,wrcc@dri.edu